createdAt,value
2022-08-18T00:00:31.966Z,27.17
2022-08-18T00:03:15.859Z,28.37
2022-08-18T00:05:48.613Z,26.77
2022-08-18T00:08:15.263Z,30.37
2022-08-18T00:10:42.784Z,29.23
2022-08-18T00:13:09.401Z,26.37
2022-08-18T00:15:41.798Z,26.40
2022-08-18T00:18:16.100Z,28.83
2022-08-18T00:20:42.685Z,28.33
2022-08-18T00:23:09.587Z,26.27
2022-08-18T00:25:36.116Z,23.27
2022-08-18T00:28:02.756Z,27.87
2022-08-18T00:30:29.413Z,30.20
2022-08-18T00:32:57.680Z,26.20
2022-08-18T00:35:31.792Z,30.00
2022-08-18T00:38:00.582Z,29.70
2022-08-18T00:40:37.823Z,29.93
2022-08-18T00:43:07.182Z,32.53
2022-08-18T00:45:39.298Z,30.13
2022-08-18T00:48:07.300Z,30.20
2022-08-18T00:50:39.806Z,32.73
2022-08-18T00:53:17.750Z,35.40
2022-08-18T00:55:54.509Z,32.93
2022-08-18T00:58:35.730Z,31.43
2022-08-18T01:01:05.999Z,32.27
2022-08-18T01:03:34.309Z,31.50
2022-08-18T01:06:06.734Z,29.47
2022-08-18T01:08:33.436Z,29.57
2022-08-18T01:11:02.396Z,34.53
2022-08-18T01:13:31.735Z,31.43
2022-08-18T01:15:58.643Z,29.53
2022-08-18T01:18:43.702Z,26.90
2022-08-18T01:21:40.221Z,26.43
2022-08-18T01:24:08.997Z,31.73
2022-08-18T01:26:44.220Z,30.83
2022-08-18T01:29:18.880Z,30.50
2022-08-18T01:31:54.952Z,26.90
2022-08-18T01:34:24.756Z,27.27
2022-08-18T01:36:52.582Z,32.27
2022-08-18T01:41:24.228Z,32.50
2022-08-18T01:42:06.756Z,31.20
2022-08-18T01:44:33.808Z,30.63
2022-08-18T01:47:00.356Z,30.17
2022-08-18T01:49:28.865Z,32.13
2022-08-18T01:51:55.908Z,29.93
2022-08-18T01:54:23.114Z,32.07
2022-08-18T01:56:50.230Z,27.83
2022-08-18T01:59:16.920Z,30.80
2022-08-18T02:01:48.561Z,32.23
2022-08-18T02:04:36.931Z,32.70
2022-08-18T02:07:07.311Z,31.10
2022-08-18T02:09:35.298Z,34.73
2022-08-18T02:12:01.955Z,32.50
2022-08-18T02:14:31.441Z,28.33
2022-08-18T02:17:01.837Z,32.37
2022-08-18T02:19:33.838Z,32.53
2022-08-18T02:22:00.685Z,32.10
2022-08-18T02:24:27.304Z,30.50
2022-08-18T02:26:54.283Z,27.87
2022-08-18T02:29:20.836Z,31.57
2022-08-18T02:31:47.451Z,33.67
2022-08-18T02:34:16.117Z,38.00
2022-08-18T02:36:42.758Z,35.50
2022-08-18T02:39:09.271Z,34.43
2022-08-18T02:41:36.676Z,32.57
2022-08-18T02:44:04.859Z,28.40
2022-08-18T02:46:34.903Z,29.93
2022-08-18T02:49:01.792Z,28.50
2022-08-18T02:51:28.412Z,31.30
2022-08-18T02:53:55.080Z,30.70
2022-08-18T02:56:35.710Z,29.20
2022-08-18T02:59:10.811Z,25.93
2022-08-18T03:01:39.931Z,28.03
2022-08-18T03:04:09.356Z,26.27
2022-08-18T03:06:38.263Z,25.83
2022-08-18T03:09:06.477Z,26.20
2022-08-18T03:11:33.168Z,26.80
2022-08-18T03:14:00.493Z,28.40
2022-08-18T03:16:27.279Z,31.27
2022-08-18T03:18:53.971Z,32.00
2022-08-18T03:21:25.877Z,39.13
2022-08-18T03:24:00.536Z,40.43
2022-08-18T03:26:30.456Z,31.20
2022-08-18T03:28:57.780Z,39.40
2022-08-18T03:31:27.770Z,43.83
2022-08-18T03:33:57.848Z,41.93
2022-08-18T03:36:34.292Z,44.93
2022-08-18T03:39:06.541Z,46.23
2022-08-18T03:41:59.130Z,50.23
2022-08-18T03:44:20.810Z,51.23
2022-08-18T03:46:47.741Z,44.60
2022-08-18T03:49:14.605Z,40.00
2022-08-18T03:51:43.845Z,56.77
2022-08-18T03:54:13.224Z,59.27
2022-08-18T03:56:41.183Z,62.43
2022-08-18T03:59:12.501Z,60.33
2022-08-18T04:01:41.007Z,60.57
2022-08-18T04:04:15.849Z,64.60
2022-08-18T04:06:52.019Z,64.20
2022-08-18T04:09:19.428Z,64.73
2022-08-18T04:11:47.311Z,65.77
2022-08-18T04:14:18.471Z,67.60
2022-08-18T04:16:45.730Z,70.87
2022-08-18T04:19:13.901Z,71.03
2022-08-18T04:21:42.883Z,64.60
2022-08-18T04:24:11.519Z,68.23
2022-08-18T04:26:44.043Z,68.53
2022-08-18T04:29:11.394Z,69.33
2022-08-18T04:31:38.042Z,72.43
2022-08-18T04:34:05.088Z,71.97
2022-08-18T04:36:34.271Z,68.67
2022-08-18T04:39:02.014Z,70.03
2022-08-18T04:41:29.492Z,73.77
2022-08-18T04:44:01.230Z,70.33
2022-08-18T04:46:28.603Z,68.93
2022-08-18T04:48:59.282Z,70.43
2022-08-18T04:52:38.885Z,72.23
2022-08-18T04:54:16.189Z,75.60
2022-08-18T04:56:43.546Z,74.93
2022-08-18T04:59:12.456Z,73.97
2022-08-18T05:01:41.670Z,65.10
2022-08-18T05:04:08.733Z,72.27
2022-08-18T05:06:36.026Z,66.03
2022-08-18T05:09:05.674Z,69.03
2022-08-18T05:11:36.461Z,73.27
2022-08-18T05:14:06.230Z,63.57
2022-08-18T05:16:36.060Z,68.67
2022-08-18T05:19:12.067Z,69.33
2022-08-18T05:21:42.097Z,72.13
2022-08-18T05:24:10.045Z,70.70
2022-08-18T05:26:37.074Z,71.43
2022-08-18T05:29:18.351Z,70.03
2022-08-18T05:31:47.233Z,69.97
2022-08-18T05:34:13.996Z,66.17
2022-08-18T05:36:49.360Z,69.37
2022-08-18T05:39:19.164Z,68.57
2022-08-18T05:41:52.757Z,72.97
2022-08-18T05:44:25.277Z,61.57
2022-08-18T05:46:54.789Z,69.30
2022-08-18T05:49:22.419Z,67.27
2022-08-18T05:51:52.722Z,68.80
2022-08-18T05:54:39.854Z,70.00
2022-08-18T05:57:12.737Z,69.90
2022-08-18T05:59:41.077Z,60.83
2022-08-18T06:02:16.957Z,64.50
2022-08-18T06:04:56.009Z,66.37
2022-08-18T06:07:37.996Z,65.33
2022-08-18T06:10:06.579Z,67.87
2022-08-18T06:12:37.244Z,68.43
2022-08-18T06:15:35.811Z,62.70
2022-08-18T06:18:11.921Z,60.00
2022-08-18T06:21:07.297Z,60.10
2022-08-18T06:23:46.742Z,64.13
2022-08-18T06:26:17.040Z,65.20
2022-08-18T06:28:46.319Z,63.47
2022-08-18T06:31:15.903Z,61.57
2022-08-18T06:34:05.720Z,64.00
2022-08-18T06:36:47.307Z,57.33
2022-08-18T06:39:26.500Z,57.20
2022-08-18T06:41:53.799Z,63.40
2022-08-18T06:44:50.569Z,62.67
2022-08-18T06:47:27.217Z,62.10
2022-08-18T06:50:08.522Z,54.47
2022-08-18T06:52:40.462Z,51.43
2022-08-18T06:55:11.416Z,50.83
2022-08-18T06:57:40.529Z,49.73
2022-08-18T07:00:25.679Z,46.63
2022-08-18T07:02:58.758Z,45.57
2022-08-18T07:05:27.601Z,48.90
2022-08-18T07:08:13.427Z,53.90
2022-08-18T07:10:48.542Z,50.40
2022-08-18T07:13:38.511Z,51.53
2022-08-18T07:16:57.964Z,55.73
2022-08-18T07:19:29.771Z,58.83
2022-08-18T07:22:06.921Z,49.83
2022-08-18T07:24:42.042Z,54.97
2022-08-18T07:27:17.315Z,55.80
2022-08-18T07:30:19.394Z,54.53
2022-08-18T07:32:51.929Z,55.37
2022-08-18T07:35:24.262Z,56.50
2022-08-18T07:37:56.986Z,55.37
2022-08-18T07:40:37.001Z,52.87
2022-08-18T07:43:09.843Z,56.27
2022-08-18T07:45:42.203Z,58.33
2022-08-18T07:51:10.276Z,57.33
2022-08-18T07:54:20.022Z,58.07
2022-08-18T07:57:24.144Z,50.87
2022-08-18T08:00:35.152Z,57.00
2022-08-18T08:03:25.039Z,57.50
2022-08-18T08:06:14.403Z,53.47
2022-08-18T08:09:18.802Z,55.80
2022-08-18T08:12:15.563Z,49.43
2022-08-18T08:14:45.943Z,54.37
2022-08-18T08:17:25.415Z,53.73
2022-08-18T08:20:10.451Z,51.83
2022-08-18T08:22:39.828Z,54.43
2022-08-18T08:25:45.906Z,56.27
2022-08-18T08:28:33.353Z,52.50
2022-08-18T08:31:33.369Z,50.40
2022-08-18T08:34:06.329Z,45.93
2022-08-18T08:36:37.560Z,46.90
2022-08-18T08:39:10.187Z,49.87
2022-08-18T08:42:28.997Z,46.30
2022-08-18T08:45:00.881Z,47.23
2022-08-18T08:48:08.506Z,46.80
2022-08-18T08:50:41.761Z,50.00
2022-08-18T08:53:45.843Z,44.13
2022-08-18T08:56:14.593Z,55.63
2022-08-18T08:58:58.675Z,45.87
2022-08-18T09:01:51.344Z,50.77
2022-08-18T09:04:57.967Z,44.43
2022-08-18T09:08:03.121Z,45.27
2022-08-18T09:10:49.471Z,47.47
2022-08-18T09:13:34.409Z,43.33
2022-08-18T09:16:24.142Z,43.80
2022-08-18T09:19:13.739Z,51.80
2022-08-18T09:22:20.429Z,49.17
2022-08-18T09:24:51.084Z,43.30
2022-08-18T09:27:54.199Z,44.20
2022-08-18T09:31:03.990Z,40.97
2022-08-18T09:33:43.632Z,45.47
2022-08-18T09:36:10.615Z,43.93
2022-08-18T09:39:28.556Z,45.10
2022-08-18T09:42:00.531Z,38.83
2022-08-18T09:44:48.319Z,42.60
2022-08-18T09:47:21.923Z,36.10
2022-08-18T09:49:56.562Z,38.33
2022-08-18T09:52:24.388Z,52.13
2022-08-18T09:55:18.094Z,47.40
2022-08-18T09:57:46.807Z,41.63
2022-08-18T10:00:28.051Z,36.40
2022-08-18T10:02:55.353Z,40.53
2022-08-18T10:05:26.777Z,40.83
2022-08-18T10:08:07.111Z,40.13
2022-08-18T10:13:48.292Z,42.60
2022-08-18T10:16:28.064Z,38.53
2022-08-18T10:19:28.017Z,41.33
2022-08-18T10:22:09.144Z,32.60
2022-08-18T10:24:43.955Z,41.93
2022-08-18T10:27:34.025Z,35.07
2022-08-18T10:30:05.558Z,31.70
2022-08-18T10:32:40.863Z,41.00
2022-08-18T10:35:40.467Z,42.07
2022-08-18T10:38:41.210Z,33.73
2022-08-18T10:41:30.692Z,38.00
2022-08-18T10:43:59.355Z,39.37
2022-08-18T10:46:32.979Z,33.00
2022-08-18T10:49:15.876Z,39.57
2022-08-18T10:52:00.558Z,35.90
2022-08-18T10:54:34.014Z,35.63
2022-08-18T10:57:06.472Z,33.83
2022-08-18T10:59:49.092Z,31.30
2022-08-18T11:03:02.455Z,27.50
2022-08-18T11:05:35.225Z,26.27
2022-08-18T11:08:15.554Z,27.27
2022-08-18T11:11:06.581Z,34.97
2022-08-18T11:13:49.945Z,28.87
2022-08-18T11:16:44.244Z,27.87
2022-08-18T11:19:13.971Z,30.43
2022-08-18T11:21:51.222Z,27.37
2022-08-18T11:24:28.120Z,23.50
2022-08-18T11:27:01.931Z,26.00
2022-08-18T11:29:33.493Z,35.80
2022-08-18T11:32:03.889Z,31.73
2022-08-18T11:34:53.096Z,26.83
2022-08-18T11:37:49.176Z,29.70
2022-08-18T11:40:51.684Z,32.03
2022-08-18T11:43:21.213Z,23.90
2022-08-18T11:45:59.104Z,28.50
2022-08-18T11:48:37.703Z,23.00
2022-08-18T11:51:27.189Z,30.67
2022-08-18T11:54:00.208Z,25.07
2022-08-18T11:56:35.677Z,24.77
2022-08-18T11:59:04.618Z,25.17
2022-08-18T12:01:51.358Z,29.67
2022-08-18T12:04:37.683Z,26.83
2022-08-18T12:07:27.020Z,22.20
2022-08-18T12:10:17.820Z,21.73
2022-08-18T12:12:48.136Z,22.27
2022-08-18T12:15:24.616Z,24.73
2022-08-18T12:17:53.580Z,26.33
2022-08-18T12:20:21.611Z,26.17
2022-08-18T12:22:49.880Z,19.90
2022-08-18T12:25:25.214Z,23.20
2022-08-18T12:27:53.686Z,19.80
2022-08-18T12:30:20.294Z,23.23
2022-08-18T12:32:50.587Z,17.70
2022-08-18T12:38:20.904Z,21.03
2022-08-18T12:40:47.539Z,17.47
2022-08-18T12:43:14.203Z,16.33
2022-08-18T12:45:41.914Z,15.93
2022-08-18T12:48:09.144Z,17.70
2022-08-18T12:50:50.266Z,17.43
2022-08-18T12:53:29.483Z,15.83
2022-08-18T12:56:30.312Z,12.73
2022-08-18T12:59:04.302Z,18.67
2022-08-18T13:01:32.375Z,16.73
2022-08-18T13:04:13.317Z,15.43
2022-08-18T13:07:00.759Z,16.80
2022-08-18T13:09:41.577Z,19.60
2022-08-18T13:12:19.209Z,13.30
2022-08-18T13:14:47.369Z,17.53
2022-08-18T13:17:29.508Z,17.80
2022-08-18T13:20:00.924Z,15.37
2022-08-18T13:22:32.324Z,12.80
2022-08-18T13:25:01.135Z,22.70
2022-08-18T13:27:32.805Z,17.87
2022-08-18T13:30:00.261Z,17.57
2022-08-18T13:32:29.818Z,16.03
2022-08-18T13:35:13.258Z,18.83
2022-08-18T13:37:41.538Z,13.20
2022-08-18T13:40:10.191Z,13.50
2022-08-18T13:43:01.200Z,16.00
2022-08-18T13:45:29.220Z,14.83
2022-08-18T13:47:59.563Z,14.63
2022-08-18T13:50:29.668Z,14.70
2022-08-18T13:53:00.898Z,12.63
2022-08-18T13:55:29.199Z,15.30
2022-08-18T13:57:56.243Z,13.70
2022-08-18T14:00:29.404Z,13.40
2022-08-18T14:02:58.903Z,12.90
2022-08-18T14:05:36.605Z,12.77
2022-08-18T14:08:19.253Z,12.47
2022-08-18T14:10:52.233Z,11.43
2022-08-18T14:13:20.594Z,10.37
2022-08-18T14:15:54.713Z,9.93
2022-08-18T14:18:28.966Z,8.80
2022-08-18T14:21:16.561Z,7.90
2022-08-18T14:24:06.338Z,8.13
2022-08-18T14:26:50.013Z,7.50
2022-08-18T14:29:46.991Z,7.37
2022-08-18T14:32:06.343Z,7.20
2022-08-18T14:34:32.935Z,6.77
2022-08-18T14:36:59.578Z,7.83
2022-08-18T14:39:26.257Z,6.87
2022-08-18T14:41:56.220Z,7.17
2022-08-18T14:44:25.487Z,6.67
2022-08-18T14:46:58.478Z,6.63
2022-08-18T14:49:28.112Z,6.73
2022-08-18T14:51:56.080Z,7.43
2022-08-18T14:54:23.851Z,7.07
2022-08-18T14:56:55.720Z,5.70
2022-08-18T14:59:23.270Z,6.57
2022-08-18T15:01:51.431Z,5.53
2022-08-18T15:04:19.778Z,5.90
2022-08-18T15:06:56.784Z,10.60
2022-08-18T15:09:29.872Z,6.17
2022-08-18T15:11:58.439Z,5.20
2022-08-18T15:14:33.177Z,6.43
2022-08-18T15:17:01.889Z,5.47
2022-08-18T15:19:59.430Z,5.93
2022-08-18T15:22:33.661Z,6.00
2022-08-18T15:25:19.035Z,5.00
2022-08-18T15:27:52.357Z,5.57
2022-08-18T15:30:19.845Z,5.47
2022-08-18T15:32:49.868Z,5.03
2022-08-18T15:35:17.881Z,5.07
2022-08-18T15:37:47.659Z,4.80
2022-08-18T15:40:30.751Z,4.90
2022-08-18T15:43:01.783Z,4.18
2022-08-18T15:45:43.442Z,4.75
2022-08-18T15:48:24.341Z,4.03
2022-08-18T15:50:51.575Z,4.10
2022-08-18T15:53:25.481Z,3.33
2022-08-18T15:55:57.106Z,3.40
2022-08-18T15:58:26.973Z,3.40
2022-08-18T16:00:56.359Z,3.15
2022-08-18T16:03:25.652Z,3.67
2022-08-18T16:05:54.845Z,3.28
2022-08-18T16:08:23.550Z,5.43
2022-08-18T16:10:51.226Z,3.80
2022-08-18T16:13:17.779Z,3.92
2022-08-18T16:15:47.022Z,3.95
2022-08-18T16:18:15.578Z,3.72
2022-08-18T16:20:43.420Z,3.75
2022-08-18T16:23:12.291Z,4.03
2022-08-18T16:25:41.921Z,3.78
2022-08-18T16:28:09.044Z,3.75
2022-08-18T16:30:35.826Z,3.40
2022-08-18T16:33:05.085Z,3.47
2022-08-18T16:35:32.787Z,3.60
2022-08-18T16:38:09.191Z,3.10
2022-08-18T16:40:36.995Z,3.00
2022-08-18T16:43:05.134Z,3.35
2022-08-18T16:45:33.621Z,4.00
2022-08-18T16:48:00.765Z,4.38
2022-08-18T16:50:28.146Z,5.32
2022-08-18T16:52:55.005Z,5.75
2022-08-18T16:55:21.836Z,4.10
2022-08-18T16:58:07.098Z,3.38
2022-08-18T17:00:55.516Z,3.78
2022-08-18T17:03:43.891Z,3.13
2022-08-18T17:06:17.729Z,3.35
2022-08-18T17:08:44.962Z,3.00
2022-08-18T17:11:14.260Z,3.20
2022-08-18T17:13:41.976Z,3.10
2022-08-18T17:16:09.736Z,2.90
2022-08-18T17:18:36.765Z,3.00
2022-08-18T17:21:05.081Z,3.30
2022-08-18T17:23:32.589Z,3.13
2022-08-18T17:26:00.445Z,2.83
2022-08-18T17:28:55.644Z,3.33
2022-08-18T17:31:24.619Z,3.00
2022-08-18T17:33:53.946Z,3.22
2022-08-18T17:36:30.852Z,3.15
2022-08-18T17:39:00.085Z,3.50
2022-08-18T17:41:26.873Z,2.75
2022-08-18T17:43:58.635Z,2.97
2022-08-18T17:46:37.278Z,3.33
2022-08-18T17:49:12.052Z,2.88
2022-08-18T17:51:44.442Z,3.13
2022-08-18T17:54:23.537Z,3.20
2022-08-18T17:57:01.572Z,3.60
2022-08-18T17:59:45.318Z,3.38
2022-08-18T18:02:29.838Z,3.65
2022-08-18T18:05:02.253Z,3.95
2022-08-18T18:07:38.456Z,3.67
2022-08-18T18:10:10.803Z,3.45
2022-08-18T18:12:38.172Z,3.28
2022-08-18T18:15:08.868Z,3.63
2022-08-18T18:17:38.717Z,3.60
2022-08-18T18:20:15.710Z,3.50
2022-08-18T18:22:43.545Z,3.63
2022-08-18T18:25:12.131Z,3.72
2022-08-18T18:27:43.567Z,3.65
2022-08-18T18:30:25.030Z,3.53
2022-08-18T18:33:00.307Z,3.67
2022-08-18T18:35:28.612Z,3.33
2022-08-18T18:38:00.412Z,3.63
2022-08-18T18:40:41.309Z,4.10
2022-08-18T18:43:42.080Z,3.63
2022-08-18T18:46:23.185Z,3.83
2022-08-18T18:49:14.457Z,3.60
2022-08-18T18:52:02.653Z,3.80
2022-08-18T18:54:49.970Z,3.83
2022-08-18T18:57:39.926Z,3.50
2022-08-18T19:00:18.249Z,3.73
2022-08-18T19:03:05.906Z,3.60
2022-08-18T19:05:35.392Z,4.00
2022-08-18T19:08:24.122Z,4.67
2022-08-18T19:10:59.607Z,4.50
2022-08-18T19:13:32.946Z,4.00
2022-08-18T19:16:27.549Z,3.50
2022-08-18T19:19:36.782Z,4.00
2022-08-18T19:22:06.876Z,3.97
2022-08-18T19:24:45.208Z,4.00
2022-08-18T19:27:23.274Z,4.00
2022-08-18T19:29:52.391Z,3.70
2022-08-18T19:32:21.711Z,3.90
2022-08-18T19:34:52.902Z,4.17
2022-08-18T19:38:00.764Z,4.43
2022-08-18T19:40:50.671Z,4.07
2022-08-18T19:43:33.019Z,5.10
2022-08-18T19:46:05.463Z,4.80
2022-08-18T19:48:39.868Z,4.53
2022-08-18T19:51:28.093Z,3.80
2022-08-18T19:54:14.816Z,3.83
2022-08-18T19:57:06.032Z,4.37
2022-08-18T19:59:49.697Z,4.30
2022-08-18T20:02:34.123Z,4.30
2022-08-18T20:05:30.228Z,3.60
2022-08-18T20:08:03.006Z,4.50
2022-08-18T20:10:41.501Z,4.23
2022-08-18T20:13:33.520Z,4.30
2022-08-18T20:16:04.653Z,8.03
2022-08-18T20:18:36.397Z,7.43
2022-08-18T20:21:23.901Z,5.67
2022-08-18T20:23:56.800Z,5.60
2022-08-18T20:26:37.664Z,6.03
2022-08-18T20:29:32.966Z,5.70
2022-08-18T20:32:03.064Z,5.07
2022-08-18T20:34:31.433Z,7.03
2022-08-18T20:36:59.948Z,6.60
2022-08-18T20:39:43.943Z,6.17
2022-08-18T20:42:22.474Z,6.27
2022-08-18T20:44:49.538Z,5.60
2022-08-18T20:47:31.550Z,5.97
2022-08-18T20:50:33.796Z,5.47
2022-08-18T20:53:19.527Z,6.10
2022-08-18T20:56:11.566Z,5.33
2022-08-18T20:58:58.196Z,6.07
2022-08-18T21:01:27.948Z,7.50
2022-08-18T21:03:54.626Z,7.67
2022-08-18T21:06:31.371Z,7.13
2022-08-18T21:08:58.556Z,5.60
2022-08-18T21:11:32.274Z,4.63
2022-08-18T21:14:04.132Z,4.60
2022-08-18T21:16:45.188Z,5.40
2022-08-18T21:19:19.974Z,5.57
2022-08-18T21:21:53.004Z,7.50
2022-08-18T21:24:41.850Z,6.67
2022-08-18T21:27:40.546Z,5.77
2022-08-18T21:30:29.761Z,4.73
2022-08-18T21:32:56.630Z,5.20
2022-08-18T21:35:34.806Z,7.60
2022-08-18T21:38:05.505Z,7.57
2022-08-18T21:40:35.403Z,6.70
2022-08-18T21:43:02.166Z,8.80
2022-08-18T21:45:29.470Z,6.40
2022-08-18T21:48:05.355Z,7.10
2022-08-18T21:50:34.671Z,5.80
2022-08-18T21:53:16.531Z,6.00
2022-08-18T21:55:46.238Z,6.63
2022-08-18T21:58:16.689Z,7.20
2022-08-18T22:01:08.258Z,6.70
2022-08-18T22:03:36.785Z,6.23
2022-08-18T22:06:13.851Z,6.30
2022-08-18T22:08:49.790Z,5.60
2022-08-18T22:12:00.023Z,6.07
2022-08-18T22:14:32.905Z,8.50
2022-08-18T22:17:26.023Z,7.10
2022-08-18T22:19:52.865Z,5.03
2022-08-18T22:22:39.249Z,6.43
2022-08-18T22:25:06.953Z,5.57
2022-08-18T22:27:33.628Z,6.00
2022-08-18T22:30:04.592Z,7.00
2022-08-18T22:32:35.586Z,5.03
2022-08-18T22:35:03.674Z,4.80
2022-08-18T22:37:32.795Z,5.60
2022-08-18T22:40:02.438Z,7.70
2022-08-18T22:42:35.498Z,7.87
2022-08-18T22:45:05.492Z,6.03
2022-08-18T22:47:34.125Z,5.03
2022-08-18T22:50:10.733Z,5.43
2022-08-18T22:52:40.900Z,6.03
2022-08-18T22:55:10.687Z,5.30
2022-08-18T22:57:38.524Z,6.00
2022-08-18T23:00:10.237Z,5.90
2022-08-18T23:02:37.000Z,5.83
2022-08-18T23:05:04.853Z,6.97
2022-08-18T23:07:31.525Z,6.27
2022-08-18T23:09:58.965Z,6.60
2022-08-18T23:12:25.915Z,6.97
2022-08-18T23:14:53.722Z,6.83
2022-08-18T23:17:23.652Z,6.77
2022-08-18T23:19:52.026Z,7.70
2022-08-18T23:24:54.223Z,6.20
2022-08-18T23:27:21.799Z,6.47
2022-08-18T23:29:48.749Z,6.07
2022-08-18T23:32:15.285Z,5.00
2022-08-18T23:34:41.866Z,5.70
2022-08-18T23:37:10.002Z,5.73
2022-08-18T23:39:38.970Z,5.80
2022-08-18T23:42:06.574Z,4.53
2022-08-18T23:44:33.818Z,4.83
2022-08-18T23:47:00.545Z,5.17
2022-08-18T23:49:28.762Z,5.50
2022-08-18T23:51:58.360Z,5.40
2022-08-18T23:54:30.745Z,5.77
2022-08-18T23:56:57.656Z,5.53
2022-08-18T23:59:25.422Z,5.17
